sensor_id;sensor_type;location;lat;lon;timestamp;P1;durP1;ratioP1;P2;durP2;ratioP2
74465;SDS011;62916;50.044;15.938;2024-03-25T00:00:46;0.40;;;0.30;;
74465;SDS011;62916;50.044;15.938;2024-03-25T00:03:17;0.90;;;0.90;;
74465;SDS011;62916;50.044;15.938;2024-03-25T00:05:47;0.60;;;0.50;;
74465;SDS011;62916;50.044;15.938;2024-03-25T00:08:18;0.50;;;0.40;;
74465;SDS011;62916;50.044;15.938;2024-03-25T00:10:49;1.10;;;0.40;;
74465;SDS011;62916;50.044;15.938;2024-03-25T00:13:19;0.70;;;0.40;;
74465;SDS011;62916;50.044;15.938;2024-03-25T00:15:50;0.50;;;0.50;;
74465;SDS011;62916;50.044;15.938;2024-03-25T00:18:21;0.80;;;0.60;;
74465;SDS011;62916;50.044;15.938;2024-03-25T00:20:51;0.30;;;0.30;;
74465;SDS011;62916;50.044;15.938;2024-03-25T00:23:22;0.80;;;0.70;;
74465;SDS011;62916;50.044;15.938;2024-03-25T00:25:52;0.60;;;0.50;;
74465;SDS011;62916;50.044;15.938;2024-03-25T00:28:22;0.50;;;0.20;;
74465;SDS011;62916;50.044;15.938;2024-03-25T00:30:53;1.00;;;0.30;;
74465;SDS011;62916;50.044;15.938;2024-03-25T00:33:25;0.30;;;0.30;;
74465;SDS011;62916;50.044;15.938;2024-03-25T00:35:56;0.60;;;0.50;;
74465;SDS011;62916;50.044;15.938;2024-03-25T00:38:27;0.30;;;0.20;;
74465;SDS011;62916;50.044;15.938;2024-03-25T00:40:57;1.00;;;0.40;;
74465;SDS011;62916;50.044;15.938;2024-03-25T00:43:27;0.50;;;0.50;;
74465;SDS011;62916;50.044;15.938;2024-03-25T00:45:58;0.40;;;0.40;;
74465;SDS011;62916;50.044;15.938;2024-03-25T00:48:29;0.90;;;0.70;;
74465;SDS011;62916;50.044;15.938;2024-03-25T00:50:59;0.70;;;0.60;;
74465;SDS011;62916;50.044;15.938;2024-03-25T00:53:30;0.50;;;0.40;;
74465;SDS011;62916;50.044;15.938;2024-03-25T00:56:00;0.40;;;0.40;;
74465;SDS011;62916;50.044;15.938;2024-03-25T00:58:31;0.50;;;0.30;;
74465;SDS011;62916;50.044;15.938;2024-03-25T01:01:02;0.50;;;0.40;;
74465;SDS011;62916;50.044;15.938;2024-03-25T01:03:33;0.30;;;0.30;;
74465;SDS011;62916;50.044;15.938;2024-03-25T01:06:03;0.90;;;0.50;;
74465;SDS011;62916;50.044;15.938;2024-03-25T01:08:34;0.50;;;0.30;;
74465;SDS011;62916;50.044;15.938;2024-03-25T01:11:05;0.70;;;0.50;;
74465;SDS011;62916;50.044;15.938;2024-03-25T01:13:37;0.80;;;0.50;;
74465;SDS011;62916;50.044;15.938;2024-03-25T01:16:09;0.90;;;0.50;;
74465;SDS011;62916;50.044;15.938;2024-03-25T01:18:40;0.50;;;0.40;;
74465;SDS011;62916;50.044;15.938;2024-03-25T01:21:10;0.50;;;0.30;;
74465;SDS011;62916;50.044;15.938;2024-03-25T01:23:42;0.80;;;0.80;;
74465;SDS011;62916;50.044;15.938;2024-03-25T01:26:13;0.70;;;0.50;;
74465;SDS011;62916;50.044;15.938;2024-03-25T01:28:44;0.60;;;0.30;;
74465;SDS011;62916;50.044;15.938;2024-03-25T01:31:15;0.50;;;0.40;;
74465;SDS011;62916;50.044;15.938;2024-03-25T01:33:46;0.50;;;0.50;;
74465;SDS011;62916;50.044;15.938;2024-03-25T01:36:16;0.40;;;0.30;;
74465;SDS011;62916;50.044;15.938;2024-03-25T01:38:47;0.50;;;0.30;;
74465;SDS011;62916;50.044;15.938;2024-03-25T01:41:20;0.60;;;0.50;;
74465;SDS011;62916;50.044;15.938;2024-03-25T01:43:51;0.50;;;0.30;;
74465;SDS011;62916;50.044;15.938;2024-03-25T01:46:22;0.80;;;0.40;;
74465;SDS011;62916;50.044;15.938;2024-03-25T01:48:52;0.70;;;0.30;;
74465;SDS011;62916;50.044;15.938;2024-03-25T01:51:25;1.60;;;0.30;;
74465;SDS011;62916;50.044;15.938;2024-03-25T01:53:56;0.70;;;0.30;;
74465;SDS011;62916;50.044;15.938;2024-03-25T01:56:27;0.50;;;0.30;;
74465;SDS011;62916;50.044;15.938;2024-03-25T01:59:01;0.40;;;0.30;;
74465;SDS011;62916;50.044;15.938;2024-03-25T02:01:33;0.50;;;0.30;;
74465;SDS011;62916;50.044;15.938;2024-03-25T02:04:04;0.70;;;0.50;;
74465;SDS011;62916;50.044;15.938;2024-03-25T02:06:36;0.50;;;0.40;;
74465;SDS011;62916;50.044;15.938;2024-03-25T02:09:09;0.30;;;0.30;;
74465;SDS011;62916;50.044;15.938;2024-03-25T02:11:41;0.20;;;0.20;;
74465;SDS011;62916;50.044;15.938;2024-03-25T02:14:13;0.30;;;0.30;;
74465;SDS011;62916;50.044;15.938;2024-03-25T02:16:44;0.80;;;0.30;;
74465;SDS011;62916;50.044;15.938;2024-03-25T02:19:14;0.70;;;0.40;;
74465;SDS011;62916;50.044;15.938;2024-03-25T02:21:47;0.80;;;0.40;;
74465;SDS011;62916;50.044;15.938;2024-03-25T02:24:18;0.40;;;0.30;;
74465;SDS011;62916;50.044;15.938;2024-03-25T02:26:51;0.20;;;0.20;;
74465;SDS011;62916;50.044;15.938;2024-03-25T02:29:22;0.40;;;0.40;;
74465;SDS011;62916;50.044;15.938;2024-03-25T02:32:01;0.30;;;0.30;;
74465;SDS011;62916;50.044;15.938;2024-03-25T02:34:32;0.30;;;0.30;;
74465;SDS011;62916;50.044;15.938;2024-03-25T02:37:02;0.50;;;0.40;;
74465;SDS011;62916;50.044;15.938;2024-03-25T02:39:34;0.40;;;0.40;;
74465;SDS011;62916;50.044;15.938;2024-03-25T02:42:06;0.50;;;0.30;;
74465;SDS011;62916;50.044;15.938;2024-03-25T02:44:36;0.50;;;0.30;;
74465;SDS011;62916;50.044;15.938;2024-03-25T02:47:11;0.50;;;0.50;;
74465;SDS011;62916;50.044;15.938;2024-03-25T02:49:41;0.60;;;0.30;;
74465;SDS011;62916;50.044;15.938;2024-03-25T02:52:12;0.60;;;0.40;;
74465;SDS011;62916;50.044;15.938;2024-03-25T02:54:43;0.40;;;0.30;;
74465;SDS011;62916;50.044;15.938;2024-03-25T02:57:14;0.40;;;0.30;;
74465;SDS011;62916;50.044;15.938;2024-03-25T02:59:45;0.40;;;0.40;;
74465;SDS011;62916;50.044;15.938;2024-03-25T03:02:16;2.00;;;0.30;;
74465;SDS011;62916;50.044;15.938;2024-03-25T03:04:47;0.50;;;0.40;;
74465;SDS011;62916;50.044;15.938;2024-03-25T03:07:17;0.70;;;0.30;;
74465;SDS011;62916;50.044;15.938;2024-03-25T03:09:50;0.40;;;0.40;;
74465;SDS011;62916;50.044;15.938;2024-03-25T03:12:21;0.60;;;0.30;;
74465;SDS011;62916;50.044;15.938;2024-03-25T03:14:51;0.50;;;0.50;;
74465;SDS011;62916;50.044;15.938;2024-03-25T03:17:22;1.30;;;0.50;;
74465;SDS011;62916;50.044;15.938;2024-03-25T03:19:52;0.50;;;0.30;;
74465;SDS011;62916;50.044;15.938;2024-03-25T03:22:23;0.60;;;0.50;;
74465;SDS011;62916;50.044;15.938;2024-03-25T03:24:53;0.30;;;0.30;;
74465;SDS011;62916;50.044;15.938;2024-03-25T03:27:24;0.70;;;0.50;;
74465;SDS011;62916;50.044;15.938;2024-03-25T03:29:55;0.30;;;0.20;;
74465;SDS011;62916;50.044;15.938;2024-03-25T03:32:25;0.30;;;0.20;;
74465;SDS011;62916;50.044;15.938;2024-03-25T03:34:56;0.40;;;0.30;;
74465;SDS011;62916;50.044;15.938;2024-03-25T03:37:27;0.40;;;0.30;;
74465;SDS011;62916;50.044;15.938;2024-03-25T03:39:57;0.40;;;0.30;;
74465;SDS011;62916;50.044;15.938;2024-03-25T03:42:28;0.40;;;0.40;;
74465;SDS011;62916;50.044;15.938;2024-03-25T03:44:59;0.40;;;0.30;;
74465;SDS011;62916;50.044;15.938;2024-03-25T03:47:29;0.50;;;0.30;;
74465;SDS011;62916;50.044;15.938;2024-03-25T03:50:00;0.90;;;0.70;;
74465;SDS011;62916;50.044;15.938;2024-03-25T03:52:31;0.70;;;0.60;;
74465;SDS011;62916;50.044;15.938;2024-03-25T03:55:03;0.70;;;0.70;;
74465;SDS011;62916;50.044;15.938;2024-03-25T03:57:35;0.70;;;0.50;;
74465;SDS011;62916;50.044;15.938;2024-03-25T04:00:07;1.00;;;0.50;;
74465;SDS011;62916;50.044;15.938;2024-03-25T04:02:41;0.60;;;0.40;;
74465;SDS011;62916;50.044;15.938;2024-03-25T04:05:11;0.20;;;0.20;;
74465;SDS011;62916;50.044;15.938;2024-03-25T04:07:42;0.70;;;0.60;;
74465;SDS011;62916;50.044;15.938;2024-03-25T04:10:13;0.80;;;0.40;;
74465;SDS011;62916;50.044;15.938;2024-03-25T04:12:44;0.40;;;0.30;;
74465;SDS011;62916;50.044;15.938;2024-03-25T04:15:14;0.40;;;0.40;;
74465;SDS011;62916;50.044;15.938;2024-03-25T04:17:46;1.10;;;0.30;;
74465;SDS011;62916;50.044;15.938;2024-03-25T04:20:20;0.80;;;0.30;;
74465;SDS011;62916;50.044;15.938;2024-03-25T04:22:50;0.30;;;0.30;;
74465;SDS011;62916;50.044;15.938;2024-03-25T04:25:21;0.80;;;0.40;;
74465;SDS011;62916;50.044;15.938;2024-03-25T04:27:51;0.80;;;0.50;;
74465;SDS011;62916;50.044;15.938;2024-03-25T04:30:22;0.30;;;0.30;;
74465;SDS011;62916;50.044;15.938;2024-03-25T04:32:53;0.40;;;0.30;;
74465;SDS011;62916;50.044;15.938;2024-03-25T04:35:24;0.70;;;0.50;;
74465;SDS011;62916;50.044;15.938;2024-03-25T04:37:55;0.40;;;0.30;;
74465;SDS011;62916;50.044;15.938;2024-03-25T04:40:26;0.30;;;0.30;;
74465;SDS011;62916;50.044;15.938;2024-03-25T04:42:56;0.70;;;0.30;;
74465;SDS011;62916;50.044;15.938;2024-03-25T04:45:27;0.40;;;0.20;;
74465;SDS011;62916;50.044;15.938;2024-03-25T04:47:58;0.50;;;0.30;;
74465;SDS011;62916;50.044;15.938;2024-03-25T04:50:28;1.00;;;0.40;;
74465;SDS011;62916;50.044;15.938;2024-03-25T04:53:00;0.60;;;0.60;;
74465;SDS011;62916;50.044;15.938;2024-03-25T04:55:31;0.60;;;0.30;;
74465;SDS011;62916;50.044;15.938;2024-03-25T04:58:02;0.50;;;0.30;;
74465;SDS011;62916;50.044;15.938;2024-03-25T05:00:32;1.20;;;0.50;;
74465;SDS011;62916;50.044;15.938;2024-03-25T05:03:03;0.80;;;0.30;;
74465;SDS011;62916;50.044;15.938;2024-03-25T05:05:36;0.30;;;0.30;;
74465;SDS011;62916;50.044;15.938;2024-03-25T05:08:06;0.40;;;0.40;;
74465;SDS011;62916;50.044;15.938;2024-03-25T05:10:37;0.90;;;0.40;;
74465;SDS011;62916;50.044;15.938;2024-03-25T05:13:08;0.70;;;0.50;;
74465;SDS011;62916;50.044;15.938;2024-03-25T05:15:38;0.80;;;0.40;;
74465;SDS011;62916;50.044;15.938;2024-03-25T05:18:09;2.10;;;0.50;;
74465;SDS011;62916;50.044;15.938;2024-03-25T05:20:39;3.40;;;0.60;;
74465;SDS011;62916;50.044;15.938;2024-03-25T05:23:10;2.20;;;0.40;;
74465;SDS011;62916;50.044;15.938;2024-03-25T05:25:41;2.90;;;0.80;;
74465;SDS011;62916;50.044;15.938;2024-03-25T05:28:11;15.90;;;2.00;;
74465;SDS011;62916;50.044;15.938;2024-03-25T05:30:42;15.50;;;2.30;;
74465;SDS011;62916;50.044;15.938;2024-03-25T05:33:13;15.40;;;2.40;;
74465;SDS011;62916;50.044;15.938;2024-03-25T05:35:43;15.20;;;1.80;;
74465;SDS011;62916;50.044;15.938;2024-03-25T05:38:14;11.90;;;1.90;;
74465;SDS011;62916;50.044;15.938;2024-03-25T05:40:46;7.60;;;1.20;;
74465;SDS011;62916;50.044;15.938;2024-03-25T05:43:17;14.70;;;1.80;;
74465;SDS011;62916;50.044;15.938;2024-03-25T05:45:54;11.60;;;1.80;;
74465;SDS011;62916;50.044;15.938;2024-03-25T05:48:25;12.30;;;1.20;;
74465;SDS011;62916;50.044;15.938;2024-03-25T05:51:00;7.90;;;1.50;;
74465;SDS011;62916;50.044;15.938;2024-03-25T05:53:32;11.30;;;1.40;;
74465;SDS011;62916;50.044;15.938;2024-03-25T05:56:04;8.90;;;1.20;;
74465;SDS011;62916;50.044;15.938;2024-03-25T05:58:34;10.40;;;1.50;;
74465;SDS011;62916;50.044;15.938;2024-03-25T06:01:05;8.90;;;1.60;;
74465;SDS011;62916;50.044;15.938;2024-03-25T06:03:35;9.40;;;1.90;;
74465;SDS011;62916;50.044;15.938;2024-03-25T06:06:06;9.10;;;1.10;;
74465;SDS011;62916;50.044;15.938;2024-03-25T06:08:37;7.40;;;1.40;;
74465;SDS011;62916;50.044;15.938;2024-03-25T06:11:07;6.50;;;1.20;;
74465;SDS011;62916;50.044;15.938;2024-03-25T06:13:39;7.20;;;1.00;;
74465;SDS011;62916;50.044;15.938;2024-03-25T06:16:09;10.50;;;1.20;;
74465;SDS011;62916;50.044;15.938;2024-03-25T06:18:40;6.70;;;1.10;;
74465;SDS011;62916;50.044;15.938;2024-03-25T06:21:11;4.10;;;0.80;;
74465;SDS011;62916;50.044;15.938;2024-03-25T06:23:42;5.20;;;0.90;;
74465;SDS011;62916;50.044;15.938;2024-03-25T06:26:13;7.40;;;1.20;;
74465;SDS011;62916;50.044;15.938;2024-03-25T06:28:43;4.90;;;1.10;;
74465;SDS011;62916;50.044;15.938;2024-03-25T06:31:15;3.50;;;0.80;;
74465;SDS011;62916;50.044;15.938;2024-03-25T06:34:03;3.10;;;0.80;;
74465;SDS011;62916;50.044;15.938;2024-03-25T06:36:49;7.80;;;1.20;;
74465;SDS011;62916;50.044;15.938;2024-03-25T06:39:20;5.10;;;1.20;;
74465;SDS011;62916;50.044;15.938;2024-03-25T06:41:50;5.10;;;0.70;;
74465;SDS011;62916;50.044;15.938;2024-03-25T06:44:21;2.50;;;0.70;;
74465;SDS011;62916;50.044;15.938;2024-03-25T06:46:52;4.30;;;0.90;;
74465;SDS011;62916;50.044;15.938;2024-03-25T06:49:23;6.20;;;1.60;;
74465;SDS011;62916;50.044;15.938;2024-03-25T06:51:54;3.70;;;0.60;;
74465;SDS011;62916;50.044;15.938;2024-03-25T06:54:25;5.60;;;1.10;;
74465;SDS011;62916;50.044;15.938;2024-03-25T06:56:55;2.00;;;0.60;;
74465;SDS011;62916;50.044;15.938;2024-03-25T06:59:26;2.30;;;0.50;;
74465;SDS011;62916;50.044;15.938;2024-03-25T07:02:04;4.20;;;0.70;;
74465;SDS011;62916;50.044;15.938;2024-03-25T07:04:35;4.50;;;0.90;;
74465;SDS011;62916;50.044;15.938;2024-03-25T07:07:06;1.60;;;0.60;;
74465;SDS011;62916;50.044;15.938;2024-03-25T07:09:36;4.90;;;0.70;;
74465;SDS011;62916;50.044;15.938;2024-03-25T07:12:07;3.00;;;0.60;;
74465;SDS011;62916;50.044;15.938;2024-03-25T07:14:38;3.40;;;0.70;;
74465;SDS011;62916;50.044;15.938;2024-03-25T07:17:08;1.80;;;0.50;;
74465;SDS011;62916;50.044;15.938;2024-03-25T07:19:39;2.70;;;0.70;;
74465;SDS011;62916;50.044;15.938;2024-03-25T07:22:10;2.60;;;0.60;;
74465;SDS011;62916;50.044;15.938;2024-03-25T07:24:41;2.20;;;0.50;;
74465;SDS011;62916;50.044;15.938;2024-03-25T07:27:12;2.90;;;1.00;;
74465;SDS011;62916;50.044;15.938;2024-03-25T07:29:44;3.30;;;0.80;;
74465;SDS011;62916;50.044;15.938;2024-03-25T07:32:15;2.60;;;0.70;;
74465;SDS011;62916;50.044;15.938;2024-03-25T07:34:46;2.90;;;0.70;;
74465;SDS011;62916;50.044;15.938;2024-03-25T07:37:16;3.70;;;0.40;;
74465;SDS011;62916;50.044;15.938;2024-03-25T07:39:47;3.10;;;0.70;;
74465;SDS011;62916;50.044;15.938;2024-03-25T07:42:18;2.10;;;0.50;;
74465;SDS011;62916;50.044;15.938;2024-03-25T07:44:48;1.60;;;0.60;;
74465;SDS011;62916;50.044;15.938;2024-03-25T07:47:19;2.20;;;0.60;;
74465;SDS011;62916;50.044;15.938;2024-03-25T07:49:50;2.60;;;0.50;;
74465;SDS011;62916;50.044;15.938;2024-03-25T07:52:20;2.30;;;0.50;;
74465;SDS011;62916;50.044;15.938;2024-03-25T07:54:51;3.60;;;0.80;;
74465;SDS011;62916;50.044;15.938;2024-03-25T07:57:22;2.70;;;0.70;;
74465;SDS011;62916;50.044;15.938;2024-03-25T07:59:52;2.20;;;0.50;;
74465;SDS011;62916;50.044;15.938;2024-03-25T08:02:23;2.20;;;0.50;;
74465;SDS011;62916;50.044;15.938;2024-03-25T08:04:53;1.10;;;0.50;;
74465;SDS011;62916;50.044;15.938;2024-03-25T08:07:24;0.80;;;0.40;;
74465;SDS011;62916;50.044;15.938;2024-03-25T08:09:54;2.60;;;0.60;;
74465;SDS011;62916;50.044;15.938;2024-03-25T08:12:25;1.60;;;0.70;;
74465;SDS011;62916;50.044;15.938;2024-03-25T08:14:55;0.50;;;0.40;;
74465;SDS011;62916;50.044;15.938;2024-03-25T08:17:26;2.70;;;0.40;;
74465;SDS011;62916;50.044;15.938;2024-03-25T08:19:57;0.70;;;0.40;;
74465;SDS011;62916;50.044;15.938;2024-03-25T08:22:27;1.20;;;0.50;;
74465;SDS011;62916;50.044;15.938;2024-03-25T08:24:58;2.30;;;0.50;;
74465;SDS011;62916;50.044;15.938;2024-03-25T08:27:29;1.90;;;0.70;;
74465;SDS011;62916;50.044;15.938;2024-03-25T08:29:59;2.30;;;0.80;;
74465;SDS011;62916;50.044;15.938;2024-03-25T08:32:30;2.00;;;0.60;;
74465;SDS011;62916;50.044;15.938;2024-03-25T08:35:01;1.60;;;0.60;;
74465;SDS011;62916;50.044;15.938;2024-03-25T08:37:32;1.50;;;0.40;;
74465;SDS011;62916;50.044;15.938;2024-03-25T08:40:04;1.90;;;0.80;;
74465;SDS011;62916;50.044;15.938;2024-03-25T08:42:37;0.80;;;0.40;;
74465;SDS011;62916;50.044;15.938;2024-03-25T08:45:08;1.70;;;0.70;;
74465;SDS011;62916;50.044;15.938;2024-03-25T08:47:38;1.60;;;0.40;;
74465;SDS011;62916;50.044;15.938;2024-03-25T08:50:11;1.00;;;0.50;;
74465;SDS011;62916;50.044;15.938;2024-03-25T08:52:41;0.80;;;0.50;;
74465;SDS011;62916;50.044;15.938;2024-03-25T08:55:12;1.80;;;0.70;;
74465;SDS011;62916;50.044;15.938;2024-03-25T08:57:43;1.20;;;0.50;;
74465;SDS011;62916;50.044;15.938;2024-03-25T09:00:14;1.70;;;0.40;;
74465;SDS011;62916;50.044;15.938;2024-03-25T09:02:46;1.10;;;0.70;;
74465;SDS011;62916;50.044;15.938;2024-03-25T09:05:16;1.50;;;0.30;;
74465;SDS011;62916;50.044;15.938;2024-03-25T09:07:48;1.50;;;0.60;;
74465;SDS011;62916;50.044;15.938;2024-03-25T09:10:21;0.70;;;0.40;;
74465;SDS011;62916;50.044;15.938;2024-03-25T09:13:09;0.70;;;0.30;;
74465;SDS011;62916;50.044;15.938;2024-03-25T09:15:40;2.00;;;0.60;;
74465;SDS011;62916;50.044;15.938;2024-03-25T09:18:10;1.10;;;0.40;;
74465;SDS011;62916;50.044;15.938;2024-03-25T09:20:41;0.50;;;0.30;;
74465;SDS011;62916;50.044;15.938;2024-03-25T09:23:12;0.70;;;0.60;;
74465;SDS011;62916;50.044;15.938;2024-03-25T09:25:51;1.50;;;0.40;;
74465;SDS011;62916;50.044;15.938;2024-03-25T09:28:22;2.50;;;0.40;;
74465;SDS011;62916;50.044;15.938;2024-03-25T09:30:53;1.00;;;0.50;;
74465;SDS011;62916;50.044;15.938;2024-03-25T09:33:23;1.20;;;0.40;;
74465;SDS011;62916;50.044;15.938;2024-03-25T09:35:54;0.60;;;0.30;;
74465;SDS011;62916;50.044;15.938;2024-03-25T09:38:24;1.20;;;0.40;;
74465;SDS011;62916;50.044;15.938;2024-03-25T09:40:55;1.50;;;0.50;;
74465;SDS011;62916;50.044;15.938;2024-03-25T09:43:30;1.50;;;0.40;;
74465;SDS011;62916;50.044;15.938;2024-03-25T09:46:07;1.00;;;0.40;;
74465;SDS011;62916;50.044;15.938;2024-03-25T09:48:38;1.10;;;0.60;;
74465;SDS011;62916;50.044;15.938;2024-03-25T09:51:10;2.30;;;0.50;;
74465;SDS011;62916;50.044;15.938;2024-03-25T09:53:41;1.00;;;0.50;;
74465;SDS011;62916;50.044;15.938;2024-03-25T09:56:11;1.20;;;0.50;;
74465;SDS011;62916;50.044;15.938;2024-03-25T09:58:43;1.50;;;0.70;;
74465;SDS011;62916;50.044;15.938;2024-03-25T10:01:15;1.80;;;0.70;;
74465;SDS011;62916;50.044;15.938;2024-03-25T10:03:45;2.30;;;0.80;;
74465;SDS011;62916;50.044;15.938;2024-03-25T10:06:16;2.00;;;0.80;;
74465;SDS011;62916;50.044;15.938;2024-03-25T10:08:47;1.00;;;0.90;;
74465;SDS011;62916;50.044;15.938;2024-03-25T10:11:21;2.40;;;0.80;;
74465;SDS011;62916;50.044;15.938;2024-03-25T10:13:52;3.40;;;1.10;;
74465;SDS011;62916;50.044;15.938;2024-03-25T10:16:23;3.20;;;1.20;;
74465;SDS011;62916;50.044;15.938;2024-03-25T10:18:54;1.20;;;0.70;;
74465;SDS011;62916;50.044;15.938;2024-03-25T10:21:25;2.10;;;1.00;;
74465;SDS011;62916;50.044;15.938;2024-03-25T10:23:56;1.70;;;0.80;;
74465;SDS011;62916;50.044;15.938;2024-03-25T10:26:27;2.10;;;1.50;;
74465;SDS011;62916;50.044;15.938;2024-03-25T10:29:00;1.90;;;0.70;;
74465;SDS011;62916;50.044;15.938;2024-03-25T10:31:32;2.40;;;0.90;;
74465;SDS011;62916;50.044;15.938;2024-03-25T10:34:02;2.00;;;0.90;;
74465;SDS011;62916;50.044;15.938;2024-03-25T10:36:33;2.00;;;0.60;;
74465;SDS011;62916;50.044;15.938;2024-03-25T10:39:04;2.80;;;0.90;;
74465;SDS011;62916;50.044;15.938;2024-03-25T10:41:36;3.10;;;0.90;;
74465;SDS011;62916;50.044;15.938;2024-03-25T10:44:08;3.60;;;0.90;;
74465;SDS011;62916;50.044;15.938;2024-03-25T10:46:39;4.00;;;1.30;;
74465;SDS011;62916;50.044;15.938;2024-03-25T10:49:13;2.30;;;1.10;;
74465;SDS011;62916;50.044;15.938;2024-03-25T10:51:49;1.60;;;0.80;;
74465;SDS011;62916;50.044;15.938;2024-03-25T10:54:21;2.40;;;0.70;;
74465;SDS011;62916;50.044;15.938;2024-03-25T10:56:54;4.10;;;0.90;;
74465;SDS011;62916;50.044;15.938;2024-03-25T10:59:25;1.80;;;0.70;;
74465;SDS011;62916;50.044;15.938;2024-03-25T11:01:58;3.40;;;0.70;;
74465;SDS011;62916;50.044;15.938;2024-03-25T11:04:28;3.40;;;1.30;;
74465;SDS011;62916;50.044;15.938;2024-03-25T11:07:07;2.00;;;1.00;;
74465;SDS011;62916;50.044;15.938;2024-03-25T11:09:38;2.80;;;1.00;;
74465;SDS011;62916;50.044;15.938;2024-03-25T11:12:11;4.60;;;1.00;;
74465;SDS011;62916;50.044;15.938;2024-03-25T11:14:43;2.30;;;0.80;;
74465;SDS011;62916;50.044;15.938;2024-03-25T11:17:15;2.90;;;1.00;;
74465;SDS011;62916;50.044;15.938;2024-03-25T11:19:46;2.10;;;1.40;;
74465;SDS011;62916;50.044;15.938;2024-03-25T11:22:16;1.70;;;0.90;;
74465;SDS011;62916;50.044;15.938;2024-03-25T11:24:54;3.50;;;1.20;;
74465;SDS011;62916;50.044;15.938;2024-03-25T11:27:27;1.70;;;0.90;;
74465;SDS011;62916;50.044;15.938;2024-03-25T11:29:58;3.00;;;1.40;;
74465;SDS011;62916;50.044;15.938;2024-03-25T11:32:29;2.20;;;0.80;;
74465;SDS011;62916;50.044;15.938;2024-03-25T11:35:11;3.00;;;1.40;;
74465;SDS011;62916;50.044;15.938;2024-03-25T11:37:42;2.60;;;1.00;;
74465;SDS011;62916;50.044;15.938;2024-03-25T11:40:13;2.40;;;1.10;;
74465;SDS011;62916;50.044;15.938;2024-03-25T11:42:45;3.20;;;1.30;;
74465;SDS011;62916;50.044;15.938;2024-03-25T11:45:15;2.00;;;0.90;;
74465;SDS011;62916;50.044;15.938;2024-03-25T11:47:48;3.70;;;1.20;;
74465;SDS011;62916;50.044;15.938;2024-03-25T11:50:19;2.70;;;1.00;;
74465;SDS011;62916;50.044;15.938;2024-03-25T11:52:50;2.00;;;1.00;;
74465;SDS011;62916;50.044;15.938;2024-03-25T11:55:21;3.30;;;1.00;;
74465;SDS011;62916;50.044;15.938;2024-03-25T11:57:55;3.80;;;1.20;;
74465;SDS011;62916;50.044;15.938;2024-03-25T12:00:26;3.10;;;1.00;;
74465;SDS011;62916;50.044;15.938;2024-03-25T12:02:57;3.30;;;1.10;;
74465;SDS011;62916;50.044;15.938;2024-03-25T12:05:28;1.60;;;1.00;;
74465;SDS011;62916;50.044;15.938;2024-03-25T12:07:58;3.90;;;0.90;;
74465;SDS011;62916;50.044;15.938;2024-03-25T12:10:29;1.30;;;0.70;;
74465;SDS011;62916;50.044;15.938;2024-03-25T12:13:17;2.10;;;0.90;;
74465;SDS011;62916;50.044;15.938;2024-03-25T12:15:49;2.90;;;1.20;;
74465;SDS011;62916;50.044;15.938;2024-03-25T12:18:20;2.20;;;1.00;;
74465;SDS011;62916;50.044;15.938;2024-03-25T12:20:51;2.30;;;1.30;;
74465;SDS011;62916;50.044;15.938;2024-03-25T12:23:22;3.30;;;1.10;;
74465;SDS011;62916;50.044;15.938;2024-03-25T12:25:58;3.00;;;1.10;;
74465;SDS011;62916;50.044;15.938;2024-03-25T12:28:30;2.50;;;1.00;;
74465;SDS011;62916;50.044;15.938;2024-03-25T12:31:03;1.80;;;0.90;;
74465;SDS011;62916;50.044;15.938;2024-03-25T12:33:42;3.00;;;1.60;;
74465;SDS011;62916;50.044;15.938;2024-03-25T12:36:13;3.40;;;1.20;;
74465;SDS011;62916;50.044;15.938;2024-03-25T12:38:43;1.80;;;0.70;;
74465;SDS011;62916;50.044;15.938;2024-03-25T12:41:22;2.10;;;1.30;;
74465;SDS011;62916;50.044;15.938;2024-03-25T12:43:54;1.60;;;0.80;;
74465;SDS011;62916;50.044;15.938;2024-03-25T12:46:24;2.70;;;1.00;;
74465;SDS011;62916;50.044;15.938;2024-03-25T12:48:57;2.90;;;0.90;;
74465;SDS011;62916;50.044;15.938;2024-03-25T12:51:27;2.60;;;0.80;;
74465;SDS011;62916;50.044;15.938;2024-03-25T12:53:58;1.90;;;1.20;;
74465;SDS011;62916;50.044;15.938;2024-03-25T12:56:29;1.90;;;0.80;;
74465;SDS011;62916;50.044;15.938;2024-03-25T12:58:59;2.50;;;1.40;;
74465;SDS011;62916;50.044;15.938;2024-03-25T13:01:30;3.40;;;1.00;;
74465;SDS011;62916;50.044;15.938;2024-03-25T13:04:00;1.70;;;0.90;;
74465;SDS011;62916;50.044;15.938;2024-03-25T13:06:31;2.40;;;1.30;;
74465;SDS011;62916;50.044;15.938;2024-03-25T13:09:02;2.40;;;1.10;;
74465;SDS011;62916;50.044;15.938;2024-03-25T13:11:53;1.90;;;0.90;;
74465;SDS011;62916;50.044;15.938;2024-03-25T13:14:24;2.70;;;0.90;;
74465;SDS011;62916;50.044;15.938;2024-03-25T13:16:55;1.30;;;0.70;;
74465;SDS011;62916;50.044;15.938;2024-03-25T13:19:25;2.50;;;1.20;;
74465;SDS011;62916;50.044;15.938;2024-03-25T13:21:56;1.50;;;0.70;;
74465;SDS011;62916;50.044;15.938;2024-03-25T13:24:27;2.30;;;1.00;;
74465;SDS011;62916;50.044;15.938;2024-03-25T13:26:58;1.70;;;0.70;;
74465;SDS011;62916;50.044;15.938;2024-03-25T13:29:29;2.90;;;1.20;;
74465;SDS011;62916;50.044;15.938;2024-03-25T13:32:00;2.40;;;1.00;;
74465;SDS011;62916;50.044;15.938;2024-03-25T13:34:32;1.90;;;1.00;;
74465;SDS011;62916;50.044;15.938;2024-03-25T13:37:03;1.10;;;0.70;;
74465;SDS011;62916;50.044;15.938;2024-03-25T13:39:33;2.40;;;1.20;;
74465;SDS011;62916;50.044;15.938;2024-03-25T13:42:04;2.60;;;0.90;;
74465;SDS011;62916;50.044;15.938;2024-03-25T13:44:34;2.10;;;0.90;;
74465;SDS011;62916;50.044;15.938;2024-03-25T13:47:06;2.90;;;1.00;;
74465;SDS011;62916;50.044;15.938;2024-03-25T13:49:36;1.70;;;1.10;;
74465;SDS011;62916;50.044;15.938;2024-03-25T13:52:07;1.70;;;0.80;;
74465;SDS011;62916;50.044;15.938;2024-03-25T13:54:38;1.60;;;1.20;;
74465;SDS011;62916;50.044;15.938;2024-03-25T13:57:08;2.90;;;0.90;;
74465;SDS011;62916;50.044;15.938;2024-03-25T13:59:39;1.30;;;1.00;;
74465;SDS011;62916;50.044;15.938;2024-03-25T14:02:09;3.00;;;1.20;;
74465;SDS011;62916;50.044;15.938;2024-03-25T14:04:39;2.40;;;0.90;;
74465;SDS011;62916;50.044;15.938;2024-03-25T14:07:10;2.20;;;0.50;;
74465;SDS011;62916;50.044;15.938;2024-03-25T14:09:40;3.50;;;0.90;;
74465;SDS011;62916;50.044;15.938;2024-03-25T14:12:10;3.30;;;1.40;;
74465;SDS011;62916;50.044;15.938;2024-03-25T14:14:41;3.30;;;1.30;;
74465;SDS011;62916;50.044;15.938;2024-03-25T14:17:11;1.30;;;0.80;;
74465;SDS011;62916;50.044;15.938;2024-03-25T14:19:41;1.90;;;0.70;;
74465;SDS011;62916;50.044;15.938;2024-03-25T14:22:12;1.50;;;0.80;;
74465;SDS011;62916;50.044;15.938;2024-03-25T14:24:43;1.70;;;0.90;;
74465;SDS011;62916;50.044;15.938;2024-03-25T14:27:13;1.80;;;0.70;;
74465;SDS011;62916;50.044;15.938;2024-03-25T14:29:44;1.40;;;0.90;;
74465;SDS011;62916;50.044;15.938;2024-03-25T14:32:15;1.50;;;0.70;;
74465;SDS011;62916;50.044;15.938;2024-03-25T14:34:49;1.60;;;0.90;;
74465;SDS011;62916;50.044;15.938;2024-03-25T14:37:19;1.50;;;0.80;;
74465;SDS011;62916;50.044;15.938;2024-03-25T14:39:50;1.80;;;0.80;;
74465;SDS011;62916;50.044;15.938;2024-03-25T14:42:21;2.40;;;0.90;;
74465;SDS011;62916;50.044;15.938;2024-03-25T14:44:51;1.30;;;0.90;;
74465;SDS011;62916;50.044;15.938;2024-03-25T14:47:22;1.20;;;0.70;;
74465;SDS011;62916;50.044;15.938;2024-03-25T14:49:53;2.00;;;1.10;;
74465;SDS011;62916;50.044;15.938;2024-03-25T14:52:23;2.90;;;0.90;;
74465;SDS011;62916;50.044;15.938;2024-03-25T14:54:54;1.40;;;0.80;;
74465;SDS011;62916;50.044;15.938;2024-03-25T14:57:24;1.50;;;1.00;;